Cochiti Pueblo, NM (87072)

2:25 PM MST on February 22, 2017 (GMT -0700)
Cochiti Lake | | Change Station
Active Advisory: Fire Weather Warning

Elev 5610 ft 35.65 °N, 106.34 °W | Updated 3 minutes ago

Overcast
Overcast
59.6 °F
Feels Like 59.6 °F
N
7.2
Wind Variable Wind from SSW
Gusts 8.7 mph

Today
High -- | Low -- °F
--% Chance of Precip.
Yesterday
High -- | Low -- °F
Precip. -- in
Pressure 29.87 in
Visibility 10.0 miles
Clouds Few 12000 ft
Dew Point 36 °F
Humidity 42%
Rainfall 0.00 in
Snow Depth Not available.
6:43 AM 5:54 PM
Waning Crescent, 15% visible
METAR KSAF 222053Z 24013KT 10SM FEW120 15/01 A3000 RMK AO2 SLP114 T01500011 58029
Pressure 29.87 in
Visibility 10.0 miles
Clouds Few 12000 ft
Dew Point 36 °F
Humidity 42%
Rainfall 0.00 in
Snow Depth Not available.
6:43 AM 5:54 PM
Waning Crescent, 15% visible
METAR KSAF 222053Z 24013KT 10SM FEW120 15/01 A3000 RMK AO2 SLP114 T01500011 58029

Get Your Daily Forecast Email!

Thanks for signing up!

Be on the lookout for a verification email in your inbox.

You'll start receiving the daily forecast at 8 AM.

×

10-Day Weather Forecast

Almanac

Astronomy

Feb. 22, 2017 Rise Set
Actual Time
Civil Twilight
Nautical Twilight
Astronomical Twilight
Moon
Length of Visible Light
Length of Day
Tomorrow will be .
, % of the Moon is Illuminated

Today's Extremes

State Highs State Lows

Community

WunderPhotos

Upload Photos

1,962,540 photos uploaded!

WunderBlog® & News

Nearby

Air Quality

  Air Quality AQ Index Pollutant
Not available.

Snow Depth

Station Depth Elevation

Earthquake Activity

City Distance Mag. Time & Date
Minimum magnitude displayed is 2.5.

Coastal Water Temperatures

Place Temperature

Stations

Nearby Weather Stations

Station Location Temp. Windchill Dew Point Humidity Wind Precip. Elev Updated Type
                   

Watches & Warnings

Fire Weather Warning
Issued: 4:50 AM MST Feb. 22, 2017 – National Weather Service

... Red flag warning remains in effect from noon to 7 PM MST
Thursday...

* area and timing... middle Rio Grande Valley and Sandia...
Manzano and Gallinas Mountains below significant snowpack
Thursday afternoon to early evening.

* 20 foot winds... west 20 to 40 mph with gusts of 50 to 60 mph
favoring areas along and east of the central mountains.

* Relative humidity... minimum values between 8 to 16 percent.
Lowest values across Socorro County.

* Impacts... any fires that develop will likely spread rapidly.
Outdoor burning is not recommended.

Precautionary/preparedness actions...

Please advise the appropriate officials or fire crews in the
field of this red flag warning.



40